Flight Track Log - Related Links

Times and Time Zones

All times are in EDT time to prevent confusion due to time zone crossing. See the UPS488 flight status page for this flight to view local times or setup timezone preferences in your user account.

Time Position Orientation Groundspeed Altitude Reporting Facility
EDT Latitude Longitude Course Direction KTS MPH feet Rate Location/Type
Tue 04:24:20 AM 38.1500 -85.7000 89° East 194 223 2,200  Level Louisville TRACON
Tue 04:25:43 AM 38.1522 -85.5786 89° East 295 339 5,600 2,426 Climbing Indianapolis Center
Tue 04:31:55 AM 38.6634 -85.0828 33° Northeast 448 516 20,600 2,350 Climbing FlightAware ADS-B (KCVG)
Tue 04:32:52 AM 38.7580 -85.0018 34° Northeast 461 531 22,400 1,832 Climbing FlightAware ADS-B (KCVG)
Tue 04:33:30 AM 38.8285 -84.9428 33° Northeast 471 542 23,500 1,692 Climbing FlightAware ADS-B (KCVG)
Tue 04:34:49 AM 38.9501 -84.8406 33° Northeast 485 558 25,700 1,691 Climbing FlightAware ADS-B (KCVG)
Tue 04:35:20 AM 39.0362 -84.7697 33° Northeast 488 562 26,600 1,765 Climbing FlightAware ADS-B (KCVG)
Tue 04:35:57 AM 39.1030 -84.7125 33° Northeast 487 560 27,700 1,617 Climbing FlightAware ADS-B (KCVG)
Tue 04:37:15 AM 39.1891 -84.6410 33° Northeast 485 558 29,700 1,557 Climbing FlightAware ADS-B (KCVG)
Tue 04:38:08 AM 39.3526 -84.5021 33° Northeast 493 567 31,100 1,453 Climbing FlightAware ADS-B (KCVG)
Tue 04:38:50 AM 39.4289 -84.4367 33° Northeast 492 566 32,000 1,118 Climbing Indianapolis Center
Tue 04:39:50 AM 39.5422 -84.3397 33° Northeast 493 567 33,000 496 Climbing Indianapolis Center
Tue 04:40:51 AM 39.6567 -84.2425 33° Northeast 491 565 33,000  Level Indianapolis Center
Tue 04:41:51 AM 39.7703 -84.1450 33° Northeast 491 565 33,000  Level Indianapolis Center
Tue 04:42:52 AM 39.8836 -84.0472 33° Northeast 489 563 33,000  Level Indianapolis Center
Tue 04:44:53 AM 40.1114 -83.8481 34° Northeast 488 562 33,000  Level Indianapolis Center
Tue 04:45:54 AM 40.2269 -83.7475 34° Northeast 489 563 33,000 -298 Level Indianapolis Center
Tue 04:46:54 AM 40.3417 -83.6467 34° Northeast 491 565 32,400 -843 Descending Indianapolis Center
Tue 04:47:55 AM 40.4567 -83.5461 34° Northeast 491 565 31,300 -694 Descending Indianapolis Center
Tue 04:48:55 AM 40.5694 -83.4450 34° Northeast 491 565 31,000 -149 Descending Indianapolis Center
Tue 04:49:56 AM 40.6844 -83.3417 34° Northeast 495 570 31,000  Level Indianapolis Center
Tue 04:50:57 AM 40.7908 -83.2492 33° Northeast 496 571 31,000  Level Indianapolis Center
Tue 04:51:57 AM 40.9053 -83.1444 35° Northeast 496 571 31,000  Level Indianapolis Center
Tue 04:52:58 AM 41.0206 -83.0400 34° Northeast 496 571 31,000  Level Indianapolis Center
Tue 04:58:17 AM 41.6256 -82.4900 34° Northeast 505 581 31,000  Level FlightAware ADS-B (CYYZ)
Tue 04:58:48 AM 41.7059 -82.4154 34° Northeast 504 580 31,000  Level FlightAware ADS-B (CYYZ)
Tue 04:59:19 AM 41.7670 -82.3602 34° Northeast 503 579 31,000  Level FlightAware ADS-B (CYYZ)
Tue 04:59:48 AM 41.8255 -82.3051 34° Northeast 502 578 31,000  Level FlightAware ADS-B (CYYZ)
Tue 05:00:18 AM 41.8797 -82.2552 34° Northeast 503 579 31,000  Level FlightAware ADS-B (CYYZ)
Tue 05:00:48 AM 41.9405 -82.1980 34° Northeast 504 580 31,000  Level FlightAware ADS-B (CYYZ)
Tue 05:00:58 AM 41.9574 -82.1820 34° Northeast 504 580 31,000  Level FlightAware ADS-B (CYYZ)
Tue 05:02:51 AM 42.1534 -81.9980 35° Northeast 506 582 31,000  Level FlightAware ADS-B (CYYZ)
Tue 05:03:16 AM 42.2060 -81.9490 35° Northeast 506 582 31,000  Level FlightAware ADS-B (CYYZ)
Tue 05:03:53 AM 42.2816 -81.8765 35° Northeast 506 582 31,000  Level FlightAware ADS-B (CYYZ)
Tue 05:04:22 AM 42.3516 -81.8111 35° Northeast 506 582 31,000  Level FlightAware ADS-B (CYYZ)
Tue 05:04:53 AM 42.4098 -81.7563 35° Northeast 508 585 31,000  Level FlightAware ADS-B (CYYZ)
Tue 05:05:12 AM 42.4472 -81.7197 35° Northeast 508 585 31,000  Level FlightAware ADS-B (EPLB / LUZ)
Tue 05:05:23 AM 42.4681 -81.6994 35° Northeast 508 585 31,000  Level FlightAware ADS-B (CYYZ)
Tue 05:05:53 AM 42.5263 -81.6443 35° Northeast 509 586 31,000  Level FlightAware ADS-B (CYYZ)
Tue 05:06:02 AM 42.4949 -81.6739 35° Northeast 509 586 31,000  Level FlightAware ADS-B (EPLB / LUZ)
Tue 05:06:23 AM 42.5832 -81.5889 35° Northeast 509 586 31,000  Level FlightAware ADS-B (CYYZ)
Tue 05:06:51 AM 42.6371 -81.5389 35° Northeast 511 588 31,000  Level FlightAware ADS-B (EPLB / LUZ)
Tue 05:06:53 AM 42.6410 -81.5352 35° Northeast 511 588 31,000  Level FlightAware ADS-B (CYYZ)
Tue 05:07:23 AM 42.7001 -81.4777 35° Northeast 512 589 31,000  Level FlightAware ADS-B (CYYZ)
Tue 05:07:38 AM 42.7271 -81.4516 35° Northeast 512 589 31,000  Level FlightAware ADS-B (EPLB / LUZ)
Tue 05:07:53 AM 42.7575 -81.4219 35° Northeast 512 589 31,000 -400 Level FlightAware ADS-B (CYYZ)
Tue 05:08:23 AM 42.8135 -81.3675 35° Northeast 515 593 30,700 -667 Descending FlightAware ADS-B (CYYZ)
Tue 05:08:38 AM 42.8374 -81.3449 35° Northeast 516 594 30,500 -800 Descending FlightAware ADS-B (EPLB / LUZ)
Tue 05:08:53 AM 42.8742 -81.3094 35° Northeast 510 587 30,300 -789 Descending FlightAware ADS-B (CYYZ)
Tue 05:09:16 AM 42.9177 -81.2666 36° Northeast 506 582 30,000 -800 Descending FlightAware ADS-B (EPLB / LUZ)
Tue 05:09:23 AM 42.9305 -81.2555 35° Northeast 503 579 29,900 -1,412 Descending FlightAware ADS-B (CYYZ)
Tue 05:09:50 AM 42.9814 -81.2026 39° Northeast 501 577 29,200 -1,400 Descending FlightAware ADS-B (EPLB / LUZ)
Tue 05:09:53 AM 42.9867 -81.1967 39° Northeast 500 575 29,200 -1,273 Level FlightAware ADS-B (CYYZ)
Tue 05:10:23 AM 43.0381 -81.1330 45° Northeast 487 560 28,500 -1,263 Descending FlightAware ADS-B (CYYZ)
Tue 05:10:31 AM 43.0488 -81.1175 47° Northeast 485 558 28,400 -1,400 Descending FlightAware ADS-B (EPLB / LUZ)
Tue 05:10:53 AM 43.0824 -81.0654 50° Northeast 477 549 27,800 -1,731 Descending FlightAware ADS-B (CYYZ)
Tue 05:11:23 AM 43.1229 -80.9944 52° Northeast 470 541 26,900 -2,217 Descending FlightAware ADS-B (CYYZ)
Tue 05:11:39 AM 43.1439 -80.9568 53° Northeast 465 535 26,100 -2,323 Descending FlightAware ADS-B (EPLB / LUZ)
Tue 05:11:54 AM 43.1626 -80.9242 52° Northeast 461 531 25,700 -2,455 Descending FlightAware ADS-B (CYYZ)
Tue 05:12:23 AM 43.2004 -80.8551 53° Northeast 451 519 24,300 -2,864 Descending FlightAware ADS-B (CYYZ)
Tue 05:12:38 AM 43.2144 -80.8299 53° Northeast 446 513 23,600 -2,800 Descending FlightAware ADS-B (EPLB / LUZ)
Tue 05:12:53 AM 43.2377 -80.7873 53° Northeast 438 504 22,900 -2,634 Descending FlightAware ADS-B (CYYZ)
Tue 05:13:19 AM 43.2683 -80.7301 53° Northeast 429 494 21,800 -2,800 Descending FlightAware ADS-B (EPLB / LUZ)
Tue 05:13:23 AM 43.2736 -80.7213 53° Northeast 427 491 21,500 -2,903 Descending FlightAware ADS-B (CYYZ)
Tue 05:13:50 AM 43.3043 -80.6654 53° Northeast 420 483 20,300 -2,710 Descending FlightAware ADS-B (EPLB / LUZ)
Tue 05:13:54 AM 43.3084 -80.6569 53° Northeast 418 481 20,100 -2,727 Descending FlightAware ADS-B (CYYZ)
Tue 05:14:23 AM 43.3428 -80.5937 53° Northeast 408 470 18,800 -2,595 Descending FlightAware ADS-B (CYYZ)
Tue 05:14:31 AM 43.3514 -80.5771 53° Northeast 407 468 18,500 -2,129 Descending FlightAware ADS-B (EPLB / LUZ)
Tue 05:14:54 AM 43.3768 -80.5319 53° Northeast 401 461 17,700 -2,000 Descending FlightAware ADS-B (CYYZ)
Tue 05:15:07 AM 43.3910 -80.5054 53° Northeast 399 459 17,300 -2,200 Descending FlightAware ADS-B (EPLB / LUZ)
Tue 05:15:24 AM 43.4097 -80.4711 53° Northeast 394 453 16,600 -2,400 Descending FlightAware ADS-B (CYYZ)
Tue 05:15:47 AM 43.4345 -80.4252 53° Northeast 387 445 15,700 -1,862 Descending FlightAware ADS-B (EPLB / LUZ)
Tue 05:15:53 AM 43.4414 -80.4113 53° Northeast 380 437 15,700 -563 Level FlightAware ADS-B (CYYZ)
Tue 05:16:19 AM 43.4644 -80.3588 68° East 364 419 15,400 -581 Descending FlightAware ADS-B (EPLB / LUZ)
Tue 05:16:24 AM 43.4671 -80.3503 69° East 360 414 15,400 -882 Level FlightAware ADS-B (CYYZ)
Tue 05:16:53 AM 43.4842 -80.2869 70° East 350 403 14,900 -1,220 Descending FlightAware ADS-B (CZBA)
Tue 05:17:23 AM 43.4978 -80.2350 70° East 344 396 14,200 -1,355 Descending FlightAware ADS-B (CZBA)
Tue 05:17:24 AM 43.5009 -80.2247 69° East 344 396 14,200 -1,400 Level FlightAware ADS-B (CYYZ)
Tue 05:17:53 AM 43.5171 -80.1632 70° East 341 392 13,500 -1,400 Descending FlightAware ADS-B (CYYZ)
Tue 05:18:24 AM 43.5334 -80.1020 70° East 340 391 12,800 -1,377 Descending FlightAware ADS-B (ETHL)
Tue 05:18:54 AM 43.5498 -80.0411 69° East 339 390 12,100 -1,463 Descending FlightAware ADS-B (CYYZ)
Tue 05:19:05 AM 43.5520 -80.0330 70° East 338 389 11,800 -1,448 Descending FlightAware ADS-B (CZBA)
Tue 05:19:23 AM 43.5657 -79.9803 70° East 336 387 11,400 -1,375 Descending FlightAware ADS-B (CYYZ)
Tue 05:19:53 AM 43.5520 -80.0330 70° East 334 384 10,700 -1,527 Descending FlightAware ADS-B (CZBA)
Tue 05:20:18 AM 43.5975 -79.8723 52° Northeast 329 379 10,000 -1,800 Descending FlightAware ADS-B (CYYZ)
Tue 05:20:23 AM 43.6026 -79.8646 44° Northeast 328 377 9,800 -2,400 Descending FlightAware ADS-B (CYYZ)
Tue 05:20:28 AM 43.6087 -79.8578 37° Northeast 324 373 9,600 -2,571 Descending FlightAware ADS-B (CYYZ)
Tue 05:20:30 AM 43.6108 -79.8553 69° East 331 381 9,500 -2,571 Descending FlightAware ADS-B
Tue 05:20:35 AM 43.6145 -79.8518 34° Northeast 322 371 9,300 -2,143 Descending FlightAware ADS-B (EPLB / LUZ)
Tue 05:20:44 AM 43.6275 -79.8402 34° Northeast 320 368 9,000 -1,875 Descending FlightAware ADS-B (CYYZ)
Tue 05:20:51 AM 43.6341 -79.8332 35° Northeast 319 367 8,800 -2,143 Descending FlightAware ADS-B
Tue 05:20:58 AM 43.6453 -79.8226 35° Northeast 318 366 8,500 -2,100 Descending FlightAware ADS-B (CYYZ)
Tue 05:21:11 AM 43.6602 -79.8086 35° Northeast 313 360 8,100 -1,600 Descending FlightAware ADS-B (EPLB / LUZ)
Tue 05:21:13 AM 43.6629 -79.8053 34° Northeast 310 357 8,100 -1,000 Level FlightAware ADS-B (CYYZ)
Tue 05:21:29 AM 43.6804 -79.7888 34° Northeast 294 338 7,800 -1,000 Descending FlightAware ADS-B (CYYZ)
Tue 05:21:31 AM 43.6826 -79.7867 34° Northeast 294 338 7,800 -800 Level FlightAware ADS-B (EPLB / LUZ)
Tue 05:21:44 AM 43.6974 -79.7730 35° Northeast 284 327 7,600 -947 Descending FlightAware ADS-B (CYYZ)
Tue 05:21:50 AM 43.7032 -79.7667 36° Northeast 281 323 7,500 -1,286 Descending FlightAware ADS-B (EPLB / LUZ)
Tue 05:21:58 AM 43.7121 -79.7582 36° Northeast 280 322 7,300 -1,304 Descending FlightAware ADS-B (CYYZ)
Tue 05:22:13 AM 43.7288 -79.7414 35° Northeast 277 319 7,000 -1,200 Descending FlightAware ADS-B (CYYZ)
Tue 05:22:23 AM 43.7385 -79.7311 36° Northeast 277 319 6,800 -1,200 Descending FlightAware ADS-B (EPLB / LUZ)
Tue 05:22:28 AM 43.7444 -79.7259 36° Northeast 276 318 6,700 -1,200 Descending FlightAware ADS-B (CYYZ)
Tue 05:22:43 AM 43.7587 -79.7084 45° Northeast 278 320 6,400 -1,304 Descending FlightAware ADS-B (CYYZ)
Tue 05:22:51 AM 43.7640 -79.7006 36° Northeast 278 320 6,200 -1,286 Descending FlightAware ADS-B
Tue 05:22:57 AM 43.7706 -79.6902 47° Northeast 274 315 6,100 -1,714 Descending FlightAware ADS-B (CYKF)
Tue 05:22:58 AM 43.7720 -79.6889 46° Northeast 273 314 6,000 -1,125 Descending FlightAware ADS-B (CYYZ)
Tue 05:23:13 AM 43.7843 -79.6704 46° Northeast 258 297 5,800 -968 Descending FlightAware ADS-B (CYYZ)
Tue 05:23:29 AM 43.7966 -79.6526 47° Northeast 249 287 5,500 -1,091 Descending FlightAware ADS-B (CYYZ)
Tue 05:23:35 AM 43.8018 -79.6444 48° Northeast 247 284 5,400 -1,714 Descending FlightAware ADS-B (EPLB / LUZ)
Tue 05:23:43 AM 43.8080 -79.6352 47° Northeast 244 281 5,100 -1,263 Descending FlightAware ADS-B (CYYZ)
Tue 05:23:54 AM 43.8149 -79.6250 47° Northeast 243 280 5,000 -800 Descending FlightAware ADS-B
Tue 05:23:58 AM 43.8196 -79.6182 46° Northeast 238 274 4,900 -632 Descending FlightAware ADS-B (CYYZ)
Tue 05:24:13 AM 43.8303 -79.6031 46° Northeast 229 264 4,800 -353 Descending FlightAware ADS-B (CYYZ)
Tue 05:24:15 AM 43.8315 -79.6011 47° Northeast 229 264 4,800 -1,125 Level FlightAware ADS-B (EPLB / LUZ)
Tue 05:24:29 AM 43.8417 -79.5862 46° Northeast 224 258 4,500 -900 Descending FlightAware ADS-B (CYYZ)
Tue 05:24:35 AM 43.8459 -79.5800 47° Northeast 222 255 4,500 -400 Level FlightAware ADS-B (EPLB / LUZ)
Tue 05:24:44 AM 43.8524 -79.5708 46° Northeast 216 249 4,400 -462 Descending FlightAware ADS-B (CYYZ)
Tue 05:24:48 AM 43.8552 -79.5655 52° Northeast 217 250 4,400 -667 Level FlightAware ADS-B (CYYZ)
Tue 05:24:53 AM 43.8580 -79.5596 63° Northeast 220 253 4,300 -750 Descending FlightAware ADS-B (CYYZ)
Tue 05:24:56 AM 43.8557 -79.5644 71° East 222 255 4,300  Level FlightAware ADS-B (CYKF)
Tue 05:24:58 AM 43.8597 -79.5529 75° East 222 255 4,300  Level FlightAware ADS-B (CYYZ)
Tue 05:25:02 AM 43.8599 -79.5515 87° East 224 258 4,300  Level FlightAware ADS-B (EPLB / LUZ)
Tue 05:25:04 AM 43.8603 -79.5459 87° East 224 258 4,300  Level FlightAware ADS-B (CYYZ)
Tue 05:25:08 AM 43.8599 -79.5387 98° East 222 255 4,300  Level FlightAware ADS-B (CYYZ)
Tue 05:25:13 AM 43.8585 -79.5318 110° East 220 253 4,300  Level FlightAware ADS-B (CYYZ)
Tue 05:25:19 AM 43.8561 -79.5256 121° Southeast 217 250 4,300  Level FlightAware ADS-B (CYYZ)
Tue 05:25:24 AM 43.8531 -79.5200 130° Southeast 214 246 4,300 -316 Level FlightAware ADS-B (CYYZ)
Tue 05:25:38 AM 43.8433 -79.5052 133° Southeast 209 241 4,200 -632 Descending FlightAware ADS-B (CYYZ)
Tue 05:25:43 AM 43.8406 -79.5013 134° Southeast 210 242 4,100 -1,200 Descending FlightAware ADS-B (EPLB / LUZ)
Tue 05:25:53 AM 43.8332 -79.4906 134° Southeast 210 242 3,900 -1,200 Descending FlightAware ADS-B (CYYZ)
Tue 05:25:58 AM 43.8400 -79.5003 134° Southeast 207 238 3,800 -1,091 Descending FlightAware ADS-B (CYKF)
Tue 05:26:04 AM 43.8256 -79.4817 145° Southeast 204 235 3,700 -1,091 Descending FlightAware ADS-B (CYYZ)
Tue 05:26:09 AM 43.8214 -79.4788 158° South 197 227 3,600 -1,200 Descending FlightAware ADS-B (CYYZ)
Tue 05:26:14 AM 43.8173 -79.4773 172° South 188 216 3,500 -1,000 Descending FlightAware ADS-B (CYYZ)
Tue 05:26:15 AM 43.8169 -79.4771 175° South 186 214 3,500  Level FlightAware ADS-B (EPLB / LUZ)
Tue 05:26:18 AM 43.8131 -79.4773 187° South 178 205 3,500 -750 Level FlightAware ADS-B (CYYZ)
Tue 05:26:23 AM 43.8093 -79.4784 197° South 171 197 3,400 -353 Descending FlightAware ADS-B (CYYZ)
Tue 05:26:35 AM 43.8013 -79.4825 203° Southwest 169 194 3,400 -400 Level FlightAware ADS-B (EPLB / LUZ)
Tue 05:26:38 AM 43.7984 -79.4844 210° Southwest 166 191 3,300 -667 Descending FlightAware ADS-B (CYYZ)
Tue 05:26:44 AM 43.7953 -79.4875 221° Southwest 163 188 3,300  Level FlightAware ADS-B (CYYZ)
Tue 05:26:48 AM 43.7927 -79.4910 227° Southwest 159 183 3,300  Level FlightAware ADS-B (CYYZ)
Tue 05:26:55 AM 43.7897 -79.4955 228° Southwest 157 181 3,300 300 Level FlightAware ADS-B (EPLB / LUZ)
Tue 05:27:08 AM 43.7828 -79.5058 228° Southwest 154 177 3,400 -214 Climbing FlightAware ADS-B (CYYZ)
Tue 05:27:23 AM 43.7754 -79.5167 227° Southwest 157 181 3,200 -632 Descending FlightAware ADS-B (CYYZ)
Tue 05:27:27 AM 43.7737 -79.5196 227° Southwest 156 180 3,200 -800 Level FlightAware ADS-B (EPLB / LUZ)
Tue 05:27:38 AM 43.7679 -79.5276 227° Southwest 155 178 3,000 -1,200 Descending FlightAware ADS-B (CYYZ)
Tue 05:27:47 AM 43.7639 -79.5333 226° Southwest 156 180 2,800 -800 Descending FlightAware ADS-B (EPLB / LUZ)
Tue 05:27:53 AM 43.7606 -79.5383 227° Southwest 155 178 2,800 -600 Level FlightAware ADS-B (CYYZ)
Tue 05:28:07 AM 43.7539 -79.5478 226° Southwest 156 180 2,600 -750 Descending FlightAware ADS-B (EPLB / LUZ)
Tue 05:28:09 AM 43.7527 -79.5492 227° Southwest 156 180 2,600 -1,125 Level FlightAware ADS-B (CYYZ)
Tue 05:28:23 AM 43.7454 -79.5601 227° Southwest 152 175 2,300 -828 Descending FlightAware ADS-B (CYYZ)
Tue 05:28:38 AM 43.7388 -79.5697 227° Southwest 138 159 2,200 -750 Descending FlightAware ADS-B (CYYZ)
Tue 05:28:39 AM 43.7382 -79.5710 227° Southwest 139 160 2,100 -800 Descending FlightAware ADS-B (EPLB / LUZ)
Tue 05:28:53 AM 43.7322 -79.5795 226° Southwest 122 140 2,000 -316 Descending FlightAware ADS-B (CYYZ)
Tue 05:28:58 AM 43.7303 -79.5823 225° Southwest 121 139 2,000 -750 Level FlightAware ADS-B (EPLB / LUZ)
Tue 05:29:09 AM 43.7263 -79.5880 227° Southwest 123 142 1,800 -857 Descending FlightAware ADS-B (CYYZ)
Tue 05:29:19 AM 43.7223 -79.5937 227° Southwest 123 142 1,700 -429 Descending FlightAware ADS-B (EPLB / LUZ)
Tue 05:29:23 AM 43.7203 -79.5965 227° Southwest 123 142 1,700 -632 Level FlightAware ADS-B (CYYZ)
Tue 05:29:38 AM 43.7145 -79.6052 226° Southwest 122 140 1,500 -857 Descending FlightAware ADS-B (CYYZ)
Tue 05:29:44 AM 43.7126 -79.6081 227° Southwest 123 142 1,400 -800 Descending FlightAware ADS-B (EPLB / LUZ)
Tue 05:29:53 AM 43.7087 -79.6138 227° Southwest 123 142 1,300 -621 Descending FlightAware ADS-B (CYYZ)
Tue 05:30:13 AM 43.7008 -79.6252 227° Southwest 123 142 1,100 -686 Descending FlightAware ADS-B (CYYZ)
Tue 05:30:28 AM 43.6948 -79.6339 227° Southwest 130 150 900 -800 Descending FlightAware ADS-B (CYYZ)

Login

Don't have an account? Register now (free) for customized features, flight alerts, and more!